sensor_id;sensor_type;location;lat;lon;timestamp;P1;P2;P0
13030;PMS7003;6582;54.644;9.760;2022-10-10T00:00:02;76.8;63.6;
13030;PMS7003;6582;54.644;9.760;2022-10-10T00:05:01;77.8;64.4;
13030;PMS7003;6582;54.644;9.760;2022-10-10T00:10:01;77.2;64.1;
13030;PMS7003;6582;54.644;9.760;2022-10-10T00:15:01;75.9;63.1;
13030;PMS7003;6582;54.644;9.760;2022-10-10T00:20:01;74.9;62.4;
13030;PMS7003;6582;54.644;9.760;2022-10-10T00:25:01;74.1;61.5;
13030;PMS7003;6582;54.644;9.760;2022-10-10T00:30:04;72.9;60.2;
13030;PMS7003;6582;54.644;9.760;2022-10-10T00:35:02;73.6;60.2;
13030;PMS7003;6582;54.644;9.760;2022-10-10T00:40:06;75.3;61.3;
13030;PMS7003;6582;54.644;9.760;2022-10-10T01:00:03;85.0;72.8;
13030;PMS7003;6582;54.644;9.760;2022-10-10T01:05:01;78.7;66.8;
13030;PMS7003;6582;54.644;9.760;2022-10-10T01:10:03;77.4;65.1;
13030;PMS7003;6582;54.644;9.760;2022-10-10T01:15:09;77.3;64.4;
13030;PMS7003;6582;54.644;9.760;2022-10-10T01:40:10;80.4;66.4;
13030;PMS7003;6582;54.644;9.760;2022-10-10T01:45:03;80.2;66.1;
13030;PMS7003;6582;54.644;9.760;2022-10-10T01:50:13;81.0;66.5;
13030;PMS7003;6582;54.644;9.760;2022-10-10T02:10:03;76.6;63.6;
13030;PMS7003;6582;54.644;9.760;2022-10-10T02:15:04;131.1;124.6;
13030;PMS7003;6582;54.644;9.760;2022-10-10T02:20:07;113.3;104.6;
13030;PMS7003;6582;54.644;9.760;2022-10-10T02:25:01;105.4;95.4;
13030;PMS7003;6582;54.644;9.760;2022-10-10T02:30:02;100.6;89.8;
13030;PMS7003;6582;54.644;9.760;2022-10-10T02:35:08;102.3;91.4;
13030;PMS7003;6582;54.644;9.760;2022-10-10T02:40:02;82.4;69.1;
13030;PMS7003;6582;54.644;9.760;2022-10-10T02:45:02;83.8;70.3;
13030;PMS7003;6582;54.644;9.760;2022-10-10T02:50:01;83.6;70.2;
13030;PMS7003;6582;54.644;9.760;2022-10-10T02:55:02;83.7;70.3;
13030;PMS7003;6582;54.644;9.760;2022-10-10T03:00:03;80.8;67.8;
13030;PMS7003;6582;54.644;9.760;2022-10-10T03:05:01;82.0;69.3;
13030;PMS7003;6582;54.644;9.760;2022-10-10T03:10:01;80.3;67.7;
13030;PMS7003;6582;54.644;9.760;2022-10-10T03:15:02;80.2;67.7;
13030;PMS7003;6582;54.644;9.760;2022-10-10T03:20:01;78.7;66.4;
13030;PMS7003;6582;54.644;9.760;2022-10-10T03:25:02;81.2;68.5;
13030;PMS7003;6582;54.644;9.760;2022-10-10T03:30:02;79.0;65.9;
13030;PMS7003;6582;54.644;9.760;2022-10-10T03:35:01;81.0;68.0;
13030;PMS7003;6582;54.644;9.760;2022-10-10T03:40:06;81.5;68.8;
13030;PMS7003;6582;54.644;9.760;2022-10-10T03:45:02;82.9;70.1;
13030;PMS7003;6582;54.644;9.760;2022-10-10T03:50:02;83.0;70.3;
13030;PMS7003;6582;54.644;9.760;2022-10-10T03:55:02;84.9;72.6;
13030;PMS7003;6582;54.644;9.760;2022-10-10T04:00:02;86.2;74.5;
13030;PMS7003;6582;54.644;9.760;2022-10-10T04:05:02;87.0;75.2;
13030;PMS7003;6582;54.644;9.760;2022-10-10T04:10:08;88.5;76.7;
13030;PMS7003;6582;54.644;9.760;2022-10-10T04:15:02;89.8;78.3;
13030;PMS7003;6582;54.644;9.760;2022-10-10T04:20:02;89.9;78.6;
13030;PMS7003;6582;54.644;9.760;2022-10-10T04:25:06;89.7;78.2;
13030;PMS7003;6582;54.644;9.760;2022-10-10T04:30:03;90.6;79.1;
13030;PMS7003;6582;54.644;9.760;2022-10-10T04:35:02;91.4;80.3;
13030;PMS7003;6582;54.644;9.760;2022-10-10T04:40:02;92.2;81.2;
13030;PMS7003;6582;54.644;9.760;2022-10-10T04:45:01;92.9;81.8;
13030;PMS7003;6582;54.644;9.760;2022-10-10T04:50:02;93.8;83.0;
13030;PMS7003;6582;54.644;9.760;2022-10-10T04:55:02;104.0;94.9;
13030;PMS7003;6582;54.644;9.760;2022-10-10T05:00:06;102.6;93.1;
13030;PMS7003;6582;54.644;9.760;2022-10-10T05:05:03;102.2;93.1;
13030;PMS7003;6582;54.644;9.760;2022-10-10T05:10:03;100.7;91.1;
13030;PMS7003;6582;54.644;9.760;2022-10-10T05:15:07;98.6;88.2;
13030;PMS7003;6582;54.644;9.760;2022-10-10T05:20:01;86.8;74.2;
13030;PMS7003;6582;54.644;9.760;2022-10-10T05:25:03;87.3;75.1;
13030;PMS7003;6582;54.644;9.760;2022-10-10T05:30:01;86.8;74.2;
13030;PMS7003;6582;54.644;9.760;2022-10-10T05:35:01;87.0;74.2;
13030;PMS7003;6582;54.644;9.760;2022-10-10T05:40:07;100.7;89.2;
13030;PMS7003;6582;54.644;9.760;2022-10-10T05:45:01;101.8;91.1;
13030;PMS7003;6582;54.644;9.760;2022-10-10T05:50:02;102.4;92.0;
13030;PMS7003;6582;54.644;9.760;2022-10-10T05:55:07;102.6;91.8;
13030;PMS7003;6582;54.644;9.760;2022-10-10T06:00:01;103.0;92.5;
13030;PMS7003;6582;54.644;9.760;2022-10-10T06:05:01;90.8;79.4;
13030;PMS7003;6582;54.644;9.760;2022-10-10T06:10:03;92.6;81.6;
13030;PMS7003;6582;54.644;9.760;2022-10-10T06:15:02;93.5;82.7;
13030;PMS7003;6582;54.644;9.760;2022-10-10T06:20:02;94.6;84.4;
13030;PMS7003;6582;54.644;9.760;2022-10-10T06:25:01;94.7;85.2;
13030;PMS7003;6582;54.644;9.760;2022-10-10T06:30:03;95.6;86.5;
13030;PMS7003;6582;54.644;9.760;2022-10-10T06:35:07;92.6;82.4;
13030;PMS7003;6582;54.644;9.760;2022-10-10T06:40:01;90.5;79.5;
13030;PMS7003;6582;54.644;9.760;2022-10-10T06:45:03;88.7;77.1;
13030;PMS7003;6582;54.644;9.760;2022-10-10T06:50:07;87.8;75.7;
13030;PMS7003;6582;54.644;9.760;2022-10-10T06:55:01;84.8;71.8;
13030;PMS7003;6582;54.644;9.760;2022-10-10T07:00:02;84.6;71.6;
13030;PMS7003;6582;54.644;9.760;2022-10-10T07:05:02;84.7;71.8;
13030;PMS7003;6582;54.644;9.760;2022-10-10T07:10:01;84.0;71.1;
13030;PMS7003;6582;54.644;9.760;2022-10-10T07:15:02;83.6;70.3;
13030;PMS7003;6582;54.644;9.760;2022-10-10T07:20:01;84.4;71.4;
13030;PMS7003;6582;54.644;9.760;2022-10-10T07:25:01;85.2;72.2;
13030;PMS7003;6582;54.644;9.760;2022-10-10T07:30:02;85.2;72.4;
13030;PMS7003;6582;54.644;9.760;2022-10-10T07:35:02;94.5;84.2;
13030;PMS7003;6582;54.644;9.760;2022-10-10T07:40:01;95.0;85.2;
13030;PMS7003;6582;54.644;9.760;2022-10-10T07:45:01;94.8;84.9;
13030;PMS7003;6582;54.644;9.760;2022-10-10T07:50:02;94.9;85.0;
13030;PMS7003;6582;54.644;9.760;2022-10-10T07:55:02;94.3;84.3;
13030;PMS7003;6582;54.644;9.760;2022-10-10T08:20:02;175.8;175.8;
13030;PMS7003;6582;54.644;9.760;2022-10-10T08:25:02;128.8;123.1;
13030;PMS7003;6582;54.644;9.760;2022-10-10T08:30:02;114.9;107.9;
13030;PMS7003;6582;54.644;9.760;2022-10-10T08:35:01;106.9;98.8;
13030;PMS7003;6582;54.644;9.760;2022-10-10T08:40:01;103.0;94.6;
13030;PMS7003;6582;54.644;9.760;2022-10-10T08:45:08;85.0;74.9;
13030;PMS7003;6582;54.644;9.760;2022-10-10T08:50:04;86.8;78.2;
13030;PMS7003;6582;54.644;9.760;2022-10-10T08:55:03;87.0;79.1;
13030;PMS7003;6582;54.644;9.760;2022-10-10T09:00:09;88.8;82.1;
13030;PMS7003;6582;54.644;9.760;2022-10-10T09:05:09;87.3;80.6;
13030;PMS7003;6582;54.644;9.760;2022-10-10T09:10:11;86.7;80.1;
13030;PMS7003;6582;54.644;9.760;2022-10-10T09:15:12;85.5;78.3;
13030;PMS7003;6582;54.644;9.760;2022-10-10T09:20:12;84.8;77.2;
13030;PMS7003;6582;54.644;9.760;2022-10-10T09:25:04;83.7;75.6;
13030;PMS7003;6582;54.644;9.760;2022-10-10T09:30:03;84.8;77.5;
13030;PMS7003;6582;54.644;9.760;2022-10-10T09:35:11;85.7;78.8;
13030;PMS7003;6582;54.644;9.760;2022-10-10T09:40:06;86.2;79.8;
13030;PMS7003;6582;54.644;9.760;2022-10-10T09:45:02;87.0;81.7;
13030;PMS7003;6582;54.644;9.760;2022-10-10T09:50:04;88.0;83.6;
13030;PMS7003;6582;54.644;9.760;2022-10-10T09:55:14;89.3;85.8;
13030;PMS7003;6582;54.644;9.760;2022-10-10T10:30:02;81.8;75.6;
13030;PMS7003;6582;54.644;9.760;2022-10-10T10:35:16;81.1;74.6;
13030;PMS7003;6582;54.644;9.760;2022-10-10T11:10:08;86.6;81.0;
13030;PMS7003;6582;54.644;9.760;2022-10-10T11:15:04;84.8;79.2;
13030;PMS7003;6582;54.644;9.760;2022-10-10T11:20:05;83.1;77.0;
13030;PMS7003;6582;54.644;9.760;2022-10-10T11:25:04;81.7;75.5;
13030;PMS7003;6582;54.644;9.760;2022-10-10T11:50:11;71.0;61.2;
13030;PMS7003;6582;54.644;9.760;2022-10-10T11:55:09;74.0;65.4;
13030;PMS7003;6582;54.644;9.760;2022-10-10T12:00:04;74.6;66.4;
13030;PMS7003;6582;54.644;9.760;2022-10-10T12:05:03;75.5;67.6;
13030;PMS7003;6582;54.644;9.760;2022-10-10T12:10:07;75.7;67.8;
13030;PMS7003;6582;54.644;9.760;2022-10-10T12:15:02;77.0;69.8;
13030;PMS7003;6582;54.644;9.760;2022-10-10T12:20:10;77.6;70.5;
13030;PMS7003;6582;54.644;9.760;2022-10-10T12:40:18;79.8;72.8;
13030;PMS7003;6582;54.644;9.760;2022-10-10T13:00:04;69.8;58.2;
13030;PMS7003;6582;54.644;9.760;2022-10-10T13:05:03;70.4;58.9;
13030;PMS7003;6582;54.644;9.760;2022-10-10T13:10:14;71.5;60.7;
13030;PMS7003;6582;54.644;9.760;2022-10-10T13:15:02;70.2;59.2;
13030;PMS7003;6582;54.644;9.760;2022-10-10T13:20:05;70.4;59.4;
13030;PMS7003;6582;54.644;9.760;2022-10-10T13:25:02;71.6;61.4;
13030;PMS7003;6582;54.644;9.760;2022-10-10T13:30:02;70.6;60.4;
13030;PMS7003;6582;54.644;9.760;2022-10-10T13:35:04;70.2;59.5;
13030;PMS7003;6582;54.644;9.760;2022-10-10T13:40:02;74.4;65.3;
13030;PMS7003;6582;54.644;9.760;2022-10-10T13:45:28;74.3;65.0;
13030;PMS7003;6582;54.644;9.760;2022-10-10T14:00:04;75.4;65.8;
13030;PMS7003;6582;54.644;9.760;2022-10-10T14:05:04;74.6;64.5;
13030;PMS7003;6582;54.644;9.760;2022-10-10T14:10:08;75.4;65.4;
13030;PMS7003;6582;54.644;9.760;2022-10-10T14:15:01;75.8;66.3;
13030;PMS7003;6582;54.644;9.760;2022-10-10T14:20:04;75.2;65.6;
13030;PMS7003;6582;54.644;9.760;2022-10-10T14:25:07;73.0;63.0;
13030;PMS7003;6582;54.644;9.760;2022-10-10T14:30:14;72.3;62.1;
13030;PMS7003;6582;54.644;9.760;2022-10-10T14:35:06;70.6;59.9;
13030;PMS7003;6582;54.644;9.760;2022-10-10T14:40:01;69.6;58.1;
13030;PMS7003;6582;54.644;9.760;2022-10-10T14:45:01;68.3;56.4;
13030;PMS7003;6582;54.644;9.760;2022-10-10T14:50:02;69.4;57.5;
13030;PMS7003;6582;54.644;9.760;2022-10-10T14:55:06;70.0;57.9;
13030;PMS7003;6582;54.644;9.760;2022-10-10T15:00:13;70.2;58.0;
13030;PMS7003;6582;54.644;9.760;2022-10-10T15:05:07;69.4;57.2;
13030;PMS7003;6582;54.644;9.760;2022-10-10T15:10:16;70.2;58.0;
13030;PMS7003;6582;54.644;9.760;2022-10-10T15:30:03;77.4;66.2;
13030;PMS7003;6582;54.644;9.760;2022-10-10T15:35:01;77.5;66.0;
13030;PMS7003;6582;54.644;9.760;2022-10-10T15:40:02;76.0;64.3;
13030;PMS7003;6582;54.644;9.760;2022-10-10T15:45:01;75.7;63.8;
13030;PMS7003;6582;54.644;9.760;2022-10-10T15:50:02;76.0;64.1;
13030;PMS7003;6582;54.644;9.760;2022-10-10T15:55:02;74.5;62.1;
13030;PMS7003;6582;54.644;9.760;2022-10-10T16:00:02;72.9;60.5;
13030;PMS7003;6582;54.644;9.760;2022-10-10T16:05:01;72.7;60.4;
13030;PMS7003;6582;54.644;9.760;2022-10-10T16:10:01;72.2;59.8;
13030;PMS7003;6582;54.644;9.760;2022-10-10T16:15:07;71.7;59.2;
13030;PMS7003;6582;54.644;9.760;2022-10-10T16:20:02;78.3;67.1;
13030;PMS7003;6582;54.644;9.760;2022-10-10T16:25:17;78.9;67.8;
13030;PMS7003;6582;54.644;9.760;2022-10-10T16:30:01;79.2;67.8;
13030;PMS7003;6582;54.644;9.760;2022-10-10T16:35:03;80.1;68.8;
13030;PMS7003;6582;54.644;9.760;2022-10-10T16:40:02;80.7;69.2;
13030;PMS7003;6582;54.644;9.760;2022-10-10T16:45:01;75.0;62.1;
13030;PMS7003;6582;54.644;9.760;2022-10-10T16:50:06;74.5;61.2;
13030;PMS7003;6582;54.644;9.760;2022-10-10T16:55:05;72.9;60.3;
13030;PMS7003;6582;54.644;9.760;2022-10-10T17:00:01;71.0;58.7;
13030;PMS7003;6582;54.644;9.760;2022-10-10T17:05:11;68.1;56.2;
13030;PMS7003;6582;54.644;9.760;2022-10-10T17:10:01;64.8;54.1;
13030;PMS7003;6582;54.644;9.760;2022-10-10T17:15:01;62.2;52.5;
13030;PMS7003;6582;54.644;9.760;2022-10-10T17:20:03;61.0;51.8;
13030;PMS7003;6582;54.644;9.760;2022-10-10T17:25:02;59.8;51.0;
13030;PMS7003;6582;54.644;9.760;2022-10-10T17:30:10;59.6;51.0;
13030;PMS7003;6582;54.644;9.760;2022-10-10T17:35:01;60.6;51.6;
13030;PMS7003;6582;54.644;9.760;2022-10-10T17:40:02;61.5;52.3;
13030;PMS7003;6582;54.644;9.760;2022-10-10T17:45:01;63.0;53.3;
13030;PMS7003;6582;54.644;9.760;2022-10-10T17:50:02;63.8;53.8;
13030;PMS7003;6582;54.644;9.760;2022-10-10T17:55:12;62.8;53.0;
13030;PMS7003;6582;54.644;9.760;2022-10-10T18:00:01;62.4;52.7;
13030;PMS7003;6582;54.644;9.760;2022-10-10T18:05:01;62.3;52.5;
13030;PMS7003;6582;54.644;9.760;2022-10-10T18:10:03;61.6;51.9;
13030;PMS7003;6582;54.644;9.760;2022-10-10T18:15:01;61.4;51.8;
13030;PMS7003;6582;54.644;9.760;2022-10-10T18:20:01;62.1;52.3;
13030;PMS7003;6582;54.644;9.760;2022-10-10T18:25:01;62.9;53.1;
13030;PMS7003;6582;54.644;9.760;2022-10-10T18:30:01;64.2;54.0;
13030;PMS7003;6582;54.644;9.760;2022-10-10T18:35:01;65.1;54.5;
13030;PMS7003;6582;54.644;9.760;2022-10-10T18:40:02;66.0;55.1;
13030;PMS7003;6582;54.644;9.760;2022-10-10T18:45:01;66.4;55.4;
13030;PMS7003;6582;54.644;9.760;2022-10-10T18:50:01;65.2;54.6;
13030;PMS7003;6582;54.644;9.760;2022-10-10T18:55:01;64.6;54.3;
13030;PMS7003;6582;54.644;9.760;2022-10-10T19:00:01;65.9;55.6;
13030;PMS7003;6582;54.644;9.760;2022-10-10T19:05:02;64.8;54.8;
13030;PMS7003;6582;54.644;9.760;2022-10-10T19:10:02;65.4;55.3;
13030;PMS7003;6582;54.644;9.760;2022-10-10T19:15:01;66.4;56.0;
13030;PMS7003;6582;54.644;9.760;2022-10-10T19:20:06;66.3;55.8;
13030;PMS7003;6582;54.644;9.760;2022-10-10T19:25:02;64.9;54.8;
13030;PMS7003;6582;54.644;9.760;2022-10-10T19:30:01;66.2;55.8;
13030;PMS7003;6582;54.644;9.760;2022-10-10T19:35:01;65.3;54.9;
13030;PMS7003;6582;54.644;9.760;2022-10-10T19:40:01;64.8;54.5;
13030;PMS7003;6582;54.644;9.760;2022-10-10T19:45:01;72.8;62.0;
13030;PMS7003;6582;54.644;9.760;2022-10-10T19:50:01;72.1;61.4;
13030;PMS7003;6582;54.644;9.760;2022-10-10T19:55:01;71.5;61.0;
13030;PMS7003;6582;54.644;9.760;2022-10-10T20:00:02;72.7;62.1;
13030;PMS7003;6582;54.644;9.760;2022-10-10T20:05:02;73.1;62.6;
13030;PMS7003;6582;54.644;9.760;2022-10-10T20:10:01;65.9;55.8;
13030;PMS7003;6582;54.644;9.760;2022-10-10T20:15:06;67.1;56.6;
13030;PMS7003;6582;54.644;9.760;2022-10-10T20:20:06;68.9;57.8;
13030;PMS7003;6582;54.644;9.760;2022-10-10T20:25:02;71.3;59.6;
13030;PMS7003;6582;54.644;9.760;2022-10-10T20:30:01;71.4;59.5;
13030;PMS7003;6582;54.644;9.760;2022-10-10T20:35:01;71.5;59.5;
13030;PMS7003;6582;54.644;9.760;2022-10-10T20:40:01;71.6;59.3;
13030;PMS7003;6582;54.644;9.760;2022-10-10T20:45:01;69.7;58.0;
13030;PMS7003;6582;54.644;9.760;2022-10-10T20:50:01;67.9;56.6;
13030;PMS7003;6582;54.644;9.760;2022-10-10T20:55:02;68.7;57.2;
13030;PMS7003;6582;54.644;9.760;2022-10-10T21:00:01;69.7;57.7;
13030;PMS7003;6582;54.644;9.760;2022-10-10T21:05:11;70.2;58.4;
13030;PMS7003;6582;54.644;9.760;2022-10-10T21:10:01;71.7;59.2;
13030;PMS7003;6582;54.644;9.760;2022-10-10T21:15:02;73.5;60.6;
13030;PMS7003;6582;54.644;9.760;2022-10-10T21:20:01;75.7;62.0;
13030;PMS7003;6582;54.644;9.760;2022-10-10T21:25:01;76.4;62.8;
13030;PMS7003;6582;54.644;9.760;2022-10-10T21:30:01;78.2;64.1;
13030;PMS7003;6582;54.644;9.760;2022-10-10T21:35:01;79.7;65.5;
13030;PMS7003;6582;54.644;9.760;2022-10-10T21:40:01;84.2;71.2;
13030;PMS7003;6582;54.644;9.760;2022-10-10T21:45:10;81.8;69.6;
13030;PMS7003;6582;54.644;9.760;2022-10-10T21:50:01;81.2;69.0;
13030;PMS7003;6582;54.644;9.760;2022-10-10T21:55:01;79.8;68.0;
13030;PMS7003;6582;54.644;9.760;2022-10-10T22:00:02;78.6;67.1;
13030;PMS7003;6582;54.644;9.760;2022-10-10T22:05:07;73.7;61.0;
13030;PMS7003;6582;54.644;9.760;2022-10-10T22:10:01;74.8;62.0;
13030;PMS7003;6582;54.644;9.760;2022-10-10T22:15:01;76.4;63.3;
13030;PMS7003;6582;54.644;9.760;2022-10-10T22:20:02;77.0;63.7;
13030;PMS7003;6582;54.644;9.760;2022-10-10T22:25:01;76.3;63.2;
13030;PMS7003;6582;54.644;9.760;2022-10-10T22:30:07;78.2;64.9;
13030;PMS7003;6582;54.644;9.760;2022-10-10T22:35:01;81.2;68.0;
13030;PMS7003;6582;54.644;9.760;2022-10-10T22:40:01;79.7;66.8;
13030;PMS7003;6582;54.644;9.760;2022-10-10T22:45:07;79.4;66.6;
13030;PMS7003;6582;54.644;9.760;2022-10-10T22:50:01;80.8;67.6;
13030;PMS7003;6582;54.644;9.760;2022-10-10T22:55:01;79.7;66.5;
13030;PMS7003;6582;54.644;9.760;2022-10-10T23:00:02;78.1;64.6;
13030;PMS7003;6582;54.644;9.760;2022-10-10T23:05:01;80.3;66.2;
13030;PMS7003;6582;54.644;9.760;2022-10-10T23:10:01;81.8;67.5;
13030;PMS7003;6582;54.644;9.760;2022-10-10T23:15:01;83.3;69.0;
13030;PMS7003;6582;54.644;9.760;2022-10-10T23:20:01;85.1;71.2;
13030;PMS7003;6582;54.644;9.760;2022-10-10T23:25:06;86.6;73.0;
13030;PMS7003;6582;54.644;9.760;2022-10-10T23:30:01;87.0;73.6;
13030;PMS7003;6582;54.644;9.760;2022-10-10T23:35:01;88.1;75.2;
13030;PMS7003;6582;54.644;9.760;2022-10-10T23:40:01;88.6;76.0;
13030;PMS7003;6582;54.644;9.760;2022-10-10T23:45:01;88.6;75.6;
13030;PMS7003;6582;54.644;9.760;2022-10-10T23:50:11;89.1;76.0;
13030;PMS7003;6582;54.644;9.760;2022-10-10T23:55:01;88.4;75.2;
